Aérodrome :
LOGIN :

S'inscrire | Disclaimer

   EN    FR    IT 

 










Légende :    VFR   VFR Marginal   IFR   IFR Intensif   IFR Très Intensif
Visi : 
Plafond : 
>= 8 km
>= 3000ft
5 à 8 km
1000 à 3000 ft
1500m à 5 km
500 à 1000 ft
800 à 1500m
200 à 500 ft
< 800m
< 200 ft
Symboles :   Orages  Brouillard  Fortes neiges  Fortes précipitations  Vent > 20 kt
SIGMETs :   Divers  Orages  Givrage  Turbulence  Onde Orograph.  Cendres Volcan.






- Altitude de l'aérodrome : 204 ft
- Code IATA : KSU


ENKB - Kristiansund , Kvernberget

DERNIER METAR :
  • 270020Z AUTO 23012KT 9999 BKN026/// OVC038/// 09/05 Q1029 RMK WIND 745FT 24019KT

METARs EXPIRÉS :
  • 262350Z AUTO 23010KT 190V250 9999 SCT023/// BKN029/// OVC042/// 09/05 Q1029 RMK WIND 745FT 24018KT
  • 262320Z AUTO 23009KT 9999 SCT026/// BKN044/// 09/05 Q1029 RMK WIND 745FT 24018KT
  • 262250Z AUTO 23008KT 9000 NCD 08/06 Q1029 RMK WIND 745FT 23016KT
  • 262220Z AUTO 24014KT 7000 FEW017/// SCT026/// 09/06 Q1029 RMK WIND 745FT 25022KT
  • 262150Z AUTO 24012KT 7000 FEW002/// SCT014/// BKN019/// 09/07 Q1029 RERA RMK WIND 745FT 24020KT

Prévision TAF périmée.



MET'MAP, la Météo Aéronautique d'un coup d'oeil ! - Copyright ORBIFLY Décembre 2007 - Disclaimer

ORBIFLY MET'MAP TEAM :

Programmation & Développement : Alexandra Zaïnal
Sur une idée originale de : Baudouin d'Aumeries
Assistance à la programmation : Marc-Olivier Méhu
Soutien technique & logistique : Manuel Goepfert

Contact : metmap@orbifly.com




SOURCES & CREDITS :

   NOAA